Portada
METAR-TAF:

METAR-TAF

Aeroports :

Durham, Anglaterra

latitud: 54-31N, longitud: 001-25W, altitud: 37 m

Observació

L'informe es va fer fa 42 minuts, a les 19:20 UTC
Vent 4 kt del Est/Sud-Est
Temperatura 19°C
Humitat 56%
Pressió 1017 hPa
Visibilitat 10 km o més
sense núvols per sota de 1500 mi sense presència de cumulonimbus.

METAR: EGNV 241920Z 11004KT CAVOK 19/10 Q1017

Hora: 21:02 (20:02 UTC)

Pronòstic

L'informe es va fer fa 3 hores i 5 minuts, a les 16:57 UTC
Pronòstic vàlid del 24 a les 18 UTC al 24 a les 21 UTC
Vent 6 kt del Sud/Sud-Est
Visibilitat 10 km o més
Escasses núvols a una alçada de 4500 ft

TAF: EGNV 241657Z 2418/2421 15006KT 9999 FEW045

Observacions i pronòstics meteorològics de més de 4000 aeroports (METAR i TAF).

Les estacions disponibles són els punts grocs i vermells al mapa.

Posi el ratolí al punt desitjat per veure el nom de l'estació.

Feu clic per veure les observacions i els pronòstics meteorològics.

Per canviar el mapa: feu clic els botons verds amb una creu de color negre per apropar; al botó verd amb un guió per allunyar la imatge; o en les fletxes verdes per a mapes adjacents.


METAR-TAF: